sensor_id;sensor_type;location;lat;lon;timestamp;temperature;humidity
6738;DHT22;3406;49.902;8.596;2023-04-03T00:00:18;6.00;72.50
6738;DHT22;3406;49.902;8.596;2023-04-03T00:02:45;6.00;72.50
6738;DHT22;3406;49.902;8.596;2023-04-03T00:05:11;6.00;72.50
6738;DHT22;3406;49.902;8.596;2023-04-03T00:07:38;6.00;72.60
6738;DHT22;3406;49.902;8.596;2023-04-03T00:10:06;5.90;72.60
6738;DHT22;3406;49.902;8.596;2023-04-03T00:12:34;5.90;72.70
6738;DHT22;3406;49.902;8.596;2023-04-03T00:15:01;5.90;72.70
6738;DHT22;3406;49.902;8.596;2023-04-03T00:17:28;5.90;72.80
6738;DHT22;3406;49.902;8.596;2023-04-03T00:19:54;5.90;72.80
6738;DHT22;3406;49.902;8.596;2023-04-03T00:22:21;5.90;72.90
6738;DHT22;3406;49.902;8.596;2023-04-03T00:24:47;5.90;72.90
6738;DHT22;3406;49.902;8.596;2023-04-03T00:27:14;5.90;72.90
6738;DHT22;3406;49.902;8.596;2023-04-03T00:29:43;6.00;73.10
6738;DHT22;3406;49.902;8.596;2023-04-03T00:32:10;6.00;73.10
6738;DHT22;3406;49.902;8.596;2023-04-03T00:34:37;5.90;73.00
6738;DHT22;3406;49.902;8.596;2023-04-03T00:37:03;5.90;73.10
6738;DHT22;3406;49.902;8.596;2023-04-03T00:39:30;5.90;73.20
6738;DHT22;3406;49.902;8.596;2023-04-03T00:41:57;5.90;73.30
6738;DHT22;3406;49.902;8.596;2023-04-03T00:47:27;5.80;73.30
6738;DHT22;3406;49.902;8.596;2023-04-03T00:49:55;5.80;73.50
6738;DHT22;3406;49.902;8.596;2023-04-03T00:52:25;5.80;74.30
6738;DHT22;3406;49.902;8.596;2023-04-03T00:54:54;5.80;73.60
6738;DHT22;3406;49.902;8.596;2023-04-03T00:57:23;5.70;73.60
6738;DHT22;3406;49.902;8.596;2023-04-03T00:59:53;5.80;73.80
6738;DHT22;3406;49.902;8.596;2023-04-03T01:02:21;5.80;73.80
6738;DHT22;3406;49.902;8.596;2023-04-03T01:04:49;5.80;73.80
6738;DHT22;3406;49.902;8.596;2023-04-03T01:07:18;5.70;73.70
6738;DHT22;3406;49.902;8.596;2023-04-03T01:09:47;5.80;74.00
6738;DHT22;3406;49.902;8.596;2023-04-03T01:12:15;5.80;74.00
6738;DHT22;3406;49.902;8.596;2023-04-03T01:14:42;5.70;74.00
6738;DHT22;3406;49.902;8.596;2023-04-03T01:17:29;5.70;74.00
6738;DHT22;3406;49.902;8.596;2023-04-03T01:20:13;5.70;74.10
6738;DHT22;3406;49.902;8.596;2023-04-03T01:22:52;5.70;74.20
6738;DHT22;3406;49.902;8.596;2023-04-03T01:25:22;5.70;74.20
6738;DHT22;3406;49.902;8.596;2023-04-03T01:27:49;5.70;74.30
6738;DHT22;3406;49.902;8.596;2023-04-03T01:30:18;5.70;74.40
6738;DHT22;3406;49.902;8.596;2023-04-03T01:32:46;5.60;74.40
6738;DHT22;3406;49.902;8.596;2023-04-03T01:35:13;5.60;74.40
6738;DHT22;3406;49.902;8.596;2023-04-03T01:37:40;5.60;74.50
6738;DHT22;3406;49.902;8.596;2023-04-03T01:40:07;5.60;74.60
6738;DHT22;3406;49.902;8.596;2023-04-03T01:42:34;5.60;74.70
6738;DHT22;3406;49.902;8.596;2023-04-03T01:45:01;5.60;74.70
6738;DHT22;3406;49.902;8.596;2023-04-03T01:47:27;5.60;74.70
6738;DHT22;3406;49.902;8.596;2023-04-03T01:49:55;5.60;74.80
6738;DHT22;3406;49.902;8.596;2023-04-03T01:52:22;5.60;74.90
6738;DHT22;3406;49.902;8.596;2023-04-03T01:54:49;5.60;75.00
6738;DHT22;3406;49.902;8.596;2023-04-03T01:57:15;5.70;75.10
6738;DHT22;3406;49.902;8.596;2023-04-03T01:59:42;5.70;75.10
6738;DHT22;3406;49.902;8.596;2023-04-03T02:02:09;5.60;75.00
6738;DHT22;3406;49.902;8.596;2023-04-03T02:04:37;5.60;75.10
6738;DHT22;3406;49.902;8.596;2023-04-03T02:07:05;5.60;75.20
6738;DHT22;3406;49.902;8.596;2023-04-03T02:09:32;5.60;75.30
6738;DHT22;3406;49.902;8.596;2023-04-03T02:11:59;5.60;75.30
6738;DHT22;3406;49.902;8.596;2023-04-03T02:14:25;5.60;75.40
6738;DHT22;3406;49.902;8.596;2023-04-03T02:16:52;5.60;75.50
6738;DHT22;3406;49.902;8.596;2023-04-03T02:19:19;5.60;75.60
6738;DHT22;3406;49.902;8.596;2023-04-03T02:21:46;5.60;75.60
6738;DHT22;3406;49.902;8.596;2023-04-03T02:24:14;5.60;75.70
6738;DHT22;3406;49.902;8.596;2023-04-03T02:26:41;5.60;75.80
6738;DHT22;3406;49.902;8.596;2023-04-03T02:29:07;5.60;75.80
6738;DHT22;3406;49.902;8.596;2023-04-03T02:31:34;5.50;75.80
6738;DHT22;3406;49.902;8.596;2023-04-03T02:34:00;5.50;75.90
6738;DHT22;3406;49.902;8.596;2023-04-03T02:36:27;5.50;76.00
6738;DHT22;3406;49.902;8.596;2023-04-03T02:38:54;5.50;76.30
6738;DHT22;3406;49.902;8.596;2023-04-03T02:41:22;5.60;76.50
6738;DHT22;3406;49.902;8.596;2023-04-03T02:43:50;5.50;76.30
6738;DHT22;3406;49.902;8.596;2023-04-03T02:46:17;5.50;76.30
6738;DHT22;3406;49.902;8.596;2023-04-03T02:48:44;5.50;76.30
6738;DHT22;3406;49.902;8.596;2023-04-03T02:51:10;5.50;76.30
6738;DHT22;3406;49.902;8.596;2023-04-03T02:53:37;5.50;76.30
6738;DHT22;3406;49.902;8.596;2023-04-03T02:56:04;5.50;76.30
6738;DHT22;3406;49.902;8.596;2023-04-03T02:58:32;5.50;76.30
6738;DHT22;3406;49.902;8.596;2023-04-03T03:00:58;5.50;76.30
6738;DHT22;3406;49.902;8.596;2023-04-03T03:03:25;5.50;76.30
6738;DHT22;3406;49.902;8.596;2023-04-03T03:06:01;5.40;76.20
6738;DHT22;3406;49.902;8.596;2023-04-03T03:08:28;5.40;76.40
6738;DHT22;3406;49.902;8.596;2023-04-03T03:10:54;5.40;76.40
6738;DHT22;3406;49.902;8.596;2023-04-03T03:13:21;5.40;76.40
6738;DHT22;3406;49.902;8.596;2023-04-03T03:15:49;5.40;76.40
6738;DHT22;3406;49.902;8.596;2023-04-03T03:18:16;5.40;76.50
6738;DHT22;3406;49.902;8.596;2023-04-03T03:20:42;5.40;76.60
6738;DHT22;3406;49.902;8.596;2023-04-03T03:23:09;5.30;76.50
6738;DHT22;3406;49.902;8.596;2023-04-03T03:25:37;5.30;76.60
6738;DHT22;3406;49.902;8.596;2023-04-03T03:28:04;5.30;76.70
6738;DHT22;3406;49.902;8.596;2023-04-03T03:30:31;5.20;76.70
6738;DHT22;3406;49.902;8.596;2023-04-03T03:32:59;5.20;76.80
6738;DHT22;3406;49.902;8.596;2023-04-03T03:35:26;5.20;76.90
6738;DHT22;3406;49.902;8.596;2023-04-03T03:37:53;5.20;76.90
6738;DHT22;3406;49.902;8.596;2023-04-03T03:40:20;5.20;77.00
6738;DHT22;3406;49.902;8.596;2023-04-03T03:42:47;5.20;77.00
6738;DHT22;3406;49.902;8.596;2023-04-03T03:45:13;5.20;77.20
6738;DHT22;3406;49.902;8.596;2023-04-03T03:47:40;5.20;77.20
6738;DHT22;3406;49.902;8.596;2023-04-03T03:50:09;5.20;77.20
6738;DHT22;3406;49.902;8.596;2023-04-03T03:52:36;5.20;77.20
6738;DHT22;3406;49.902;8.596;2023-04-03T03:55:03;5.20;77.20
6738;DHT22;3406;49.902;8.596;2023-04-03T03:57:29;5.20;77.30
6738;DHT22;3406;49.902;8.596;2023-04-03T03:59:56;5.20;77.30
6738;DHT22;3406;49.902;8.596;2023-04-03T04:02:23;5.20;77.30
6738;DHT22;3406;49.902;8.596;2023-04-03T04:04:49;5.20;77.40
6738;DHT22;3406;49.902;8.596;2023-04-03T04:07:18;5.20;77.40
6738;DHT22;3406;49.902;8.596;2023-04-03T04:09:44;5.20;77.40
6738;DHT22;3406;49.902;8.596;2023-04-03T04:12:11;5.20;77.50
6738;DHT22;3406;49.902;8.596;2023-04-03T04:14:38;5.20;77.60
6738;DHT22;3406;49.902;8.596;2023-04-03T04:17:04;5.20;77.70
6738;DHT22;3406;49.902;8.596;2023-04-03T04:19:31;5.30;77.80
6738;DHT22;3406;49.902;8.596;2023-04-03T04:21:58;5.20;77.80
6738;DHT22;3406;49.902;8.596;2023-04-03T04:24:26;5.20;77.80
6738;DHT22;3406;49.902;8.596;2023-04-03T04:26:53;5.30;77.90
6738;DHT22;3406;49.902;8.596;2023-04-03T04:29:19;5.30;77.90
6738;DHT22;3406;49.902;8.596;2023-04-03T04:31:46;5.30;77.90
6738;DHT22;3406;49.902;8.596;2023-04-03T04:34:13;5.30;77.90
6738;DHT22;3406;49.902;8.596;2023-04-03T04:36:41;5.30;77.90
6738;DHT22;3406;49.902;8.596;2023-04-03T04:39:07;5.30;77.90
6738;DHT22;3406;49.902;8.596;2023-04-03T04:41:35;5.30;77.90
6738;DHT22;3406;49.902;8.596;2023-04-03T04:44:02;5.30;78.50
6738;DHT22;3406;49.902;8.596;2023-04-03T04:46:29;5.30;77.90
6738;DHT22;3406;49.902;8.596;2023-04-03T04:48:55;5.20;77.70
6738;DHT22;3406;49.902;8.596;2023-04-03T04:51:22;5.20;77.70
6738;DHT22;3406;49.902;8.596;2023-04-03T04:53:49;5.20;77.70
6738;DHT22;3406;49.902;8.596;2023-04-03T04:56:15;5.20;77.70
6738;DHT22;3406;49.902;8.596;2023-04-03T04:58:43;5.20;77.70
6738;DHT22;3406;49.902;8.596;2023-04-03T05:01:10;5.20;77.60
6738;DHT22;3406;49.902;8.596;2023-04-03T05:03:37;5.20;77.60
6738;DHT22;3406;49.902;8.596;2023-04-03T05:06:04;5.10;77.60
6738;DHT22;3406;49.902;8.596;2023-04-03T05:08:31;5.10;77.60
6738;DHT22;3406;49.902;8.596;2023-04-03T05:10:57;5.10;77.50
6738;DHT22;3406;49.902;8.596;2023-04-03T05:13:24;5.10;77.50
6738;DHT22;3406;49.902;8.596;2023-04-03T05:15:52;5.10;77.50
6738;DHT22;3406;49.902;8.596;2023-04-03T05:18:19;5.00;77.40
6738;DHT22;3406;49.902;8.596;2023-04-03T05:20:48;5.00;77.50
6738;DHT22;3406;49.902;8.596;2023-04-03T05:23:15;5.00;77.40
6738;DHT22;3406;49.902;8.596;2023-04-03T05:25:42;5.00;77.30
6738;DHT22;3406;49.902;8.596;2023-04-03T05:28:10;5.00;77.40
6738;DHT22;3406;49.902;8.596;2023-04-03T05:30:37;4.90;77.20
6738;DHT22;3406;49.902;8.596;2023-04-03T05:33:05;4.90;77.20
6738;DHT22;3406;49.902;8.596;2023-04-03T05:35:31;4.90;77.10
6738;DHT22;3406;49.902;8.596;2023-04-03T05:37:58;4.90;77.20
6738;DHT22;3406;49.902;8.596;2023-04-03T05:40:25;4.90;77.30
6738;DHT22;3406;49.902;8.596;2023-04-03T05:42:51;4.90;77.20
6738;DHT22;3406;49.902;8.596;2023-04-03T05:45:18;4.90;77.20
6738;DHT22;3406;49.902;8.596;2023-04-03T05:47:45;4.90;77.10
6738;DHT22;3406;49.902;8.596;2023-04-03T05:50:14;4.90;77.10
6738;DHT22;3406;49.902;8.596;2023-04-03T05:52:43;4.90;77.10
6738;DHT22;3406;49.902;8.596;2023-04-03T05:55:10;4.90;77.00
6738;DHT22;3406;49.902;8.596;2023-04-03T05:57:37;4.90;77.00
6738;DHT22;3406;49.902;8.596;2023-04-03T06:00:05;5.00;77.00
6738;DHT22;3406;49.902;8.596;2023-04-03T06:02:32;5.00;77.00
6738;DHT22;3406;49.902;8.596;2023-04-03T06:04:58;5.00;76.90
6738;DHT22;3406;49.902;8.596;2023-04-03T06:07:26;5.00;76.90
6738;DHT22;3406;49.902;8.596;2023-04-03T06:09:55;5.00;76.90
6738;DHT22;3406;49.902;8.596;2023-04-03T06:12:22;5.00;76.90
6738;DHT22;3406;49.902;8.596;2023-04-03T06:14:49;5.00;76.70
6738;DHT22;3406;49.902;8.596;2023-04-03T06:17:17;5.10;76.80
6738;DHT22;3406;49.902;8.596;2023-04-03T06:19:44;5.10;76.70
6738;DHT22;3406;49.902;8.596;2023-04-03T06:22:11;5.10;76.50
6738;DHT22;3406;49.902;8.596;2023-04-03T06:24:39;5.10;76.30
6738;DHT22;3406;49.902;8.596;2023-04-03T06:27:07;5.20;76.40
6738;DHT22;3406;49.902;8.596;2023-04-03T06:29:33;5.20;76.20
6738;DHT22;3406;49.902;8.596;2023-04-03T06:32:00;5.20;76.00
6738;DHT22;3406;49.902;8.596;2023-04-03T06:34:27;5.20;75.70
6738;DHT22;3406;49.902;8.596;2023-04-03T06:36:53;5.20;75.50
6738;DHT22;3406;49.902;8.596;2023-04-03T06:39:21;5.20;75.30
6738;DHT22;3406;49.902;8.596;2023-04-03T06:41:50;5.20;75.20
6738;DHT22;3406;49.902;8.596;2023-04-03T06:44:17;5.20;75.10
6738;DHT22;3406;49.902;8.596;2023-04-03T06:46:44;5.30;75.20
6738;DHT22;3406;49.902;8.596;2023-04-03T06:49:12;5.30;75.00
6738;DHT22;3406;49.902;8.596;2023-04-03T06:51:38;5.40;74.90
6738;DHT22;3406;49.902;8.596;2023-04-03T06:54:06;5.50;74.60
6738;DHT22;3406;49.902;8.596;2023-04-03T06:56:33;5.60;74.30
6738;DHT22;3406;49.902;8.596;2023-04-03T06:59:02;5.70;73.80
6738;DHT22;3406;49.902;8.596;2023-04-03T07:01:30;5.80;73.50
6738;DHT22;3406;49.902;8.596;2023-04-03T07:03:56;5.80;73.10
6738;DHT22;3406;49.902;8.596;2023-04-03T07:06:23;5.90;72.90
6738;DHT22;3406;49.902;8.596;2023-04-03T07:08:52;6.00;72.60
6738;DHT22;3406;49.902;8.596;2023-04-03T07:11:19;6.10;72.10
6738;DHT22;3406;49.902;8.596;2023-04-03T07:13:45;6.10;71.80
6738;DHT22;3406;49.902;8.596;2023-04-03T07:16:13;6.20;71.60
6738;DHT22;3406;49.902;8.596;2023-04-03T07:18:40;6.20;71.20
6738;DHT22;3406;49.902;8.596;2023-04-03T07:21:07;6.30;71.10
6738;DHT22;3406;49.902;8.596;2023-04-03T07:23:34;6.30;70.30
6738;DHT22;3406;49.902;8.596;2023-04-03T07:26:00;6.30;70.00
6738;DHT22;3406;49.902;8.596;2023-04-03T07:28:27;6.40;69.80
6738;DHT22;3406;49.902;8.596;2023-04-03T07:31:02;6.40;69.40
6738;DHT22;3406;49.902;8.596;2023-04-03T07:33:30;6.40;69.00
6738;DHT22;3406;49.902;8.596;2023-04-03T07:35:57;6.40;68.70
6738;DHT22;3406;49.902;8.596;2023-04-03T07:38:24;6.50;68.60
6738;DHT22;3406;49.902;8.596;2023-04-03T07:40:51;6.50;68.20
6738;DHT22;3406;49.902;8.596;2023-04-03T07:43:20;6.60;67.80
6738;DHT22;3406;49.902;8.596;2023-04-03T07:45:48;6.60;67.70
6738;DHT22;3406;49.902;8.596;2023-04-03T07:48:17;6.70;67.30
6738;DHT22;3406;49.902;8.596;2023-04-03T07:50:45;6.70;66.70
6738;DHT22;3406;49.902;8.596;2023-04-03T07:53:12;6.70;66.40
6738;DHT22;3406;49.902;8.596;2023-04-03T07:55:39;6.80;66.40
6738;DHT22;3406;49.902;8.596;2023-04-03T07:58:09;6.80;66.20
6738;DHT22;3406;49.902;8.596;2023-04-03T08:00:36;6.80;65.70
6738;DHT22;3406;49.902;8.596;2023-04-03T08:03:03;6.80;65.60
6738;DHT22;3406;49.902;8.596;2023-04-03T08:05:29;6.90;65.70
6738;DHT22;3406;49.902;8.596;2023-04-03T08:07:57;6.90;65.20
6738;DHT22;3406;49.902;8.596;2023-04-03T08:10:24;6.90;64.70
6738;DHT22;3406;49.902;8.596;2023-04-03T08:12:51;6.90;64.20
6738;DHT22;3406;49.902;8.596;2023-04-03T08:15:17;6.90;64.10
6738;DHT22;3406;49.902;8.596;2023-04-03T08:17:44;7.00;63.80
6738;DHT22;3406;49.902;8.596;2023-04-03T08:20:11;7.00;63.70
6738;DHT22;3406;49.902;8.596;2023-04-03T08:22:38;7.00;63.70
6738;DHT22;3406;49.902;8.596;2023-04-03T08:25:06;7.10;63.70
6738;DHT22;3406;49.902;8.596;2023-04-03T08:27:33;7.10;63.20
6738;DHT22;3406;49.902;8.596;2023-04-03T08:30:00;7.10;62.90
6738;DHT22;3406;49.902;8.596;2023-04-03T08:32:27;7.10;63.00
6738;DHT22;3406;49.902;8.596;2023-04-03T08:34:54;7.20;63.10
6738;DHT22;3406;49.902;8.596;2023-04-03T08:37:21;7.30;63.30
6738;DHT22;3406;49.902;8.596;2023-04-03T08:39:48;7.40;62.40
6738;DHT22;3406;49.902;8.596;2023-04-03T08:42:26;7.40;61.90
6738;DHT22;3406;49.902;8.596;2023-04-03T08:45:00;7.40;61.90
6738;DHT22;3406;49.902;8.596;2023-04-03T08:47:37;7.50;61.90
6738;DHT22;3406;49.902;8.596;2023-04-03T08:50:06;7.50;61.20
6738;DHT22;3406;49.902;8.596;2023-04-03T08:52:36;7.50;60.80
6738;DHT22;3406;49.902;8.596;2023-04-03T08:55:07;7.50;60.80
6738;DHT22;3406;49.902;8.596;2023-04-03T08:57:39;7.60;60.90
6738;DHT22;3406;49.902;8.596;2023-04-03T09:00:16;7.70;60.70
6738;DHT22;3406;49.902;8.596;2023-04-03T09:02:45;7.80;60.40
6738;DHT22;3406;49.902;8.596;2023-04-03T09:05:14;7.90;60.20
6738;DHT22;3406;49.902;8.596;2023-04-03T09:07:43;8.00;60.20
6738;DHT22;3406;49.902;8.596;2023-04-03T09:10:13;8.10;60.10
6738;DHT22;3406;49.902;8.596;2023-04-03T09:12:44;8.20;59.80
6738;DHT22;3406;49.902;8.596;2023-04-03T09:15:18;8.10;59.40
6738;DHT22;3406;49.902;8.596;2023-04-03T09:17:53;8.10;59.50
6738;DHT22;3406;49.902;8.596;2023-04-03T09:20:29;8.20;59.50
6738;DHT22;3406;49.902;8.596;2023-04-03T09:22:58;8.30;59.40
6738;DHT22;3406;49.902;8.596;2023-04-03T09:25:27;8.40;59.00
6738;DHT22;3406;49.902;8.596;2023-04-03T09:27:57;8.50;58.50
6738;DHT22;3406;49.902;8.596;2023-04-03T09:30:25;8.50;58.20
6738;DHT22;3406;49.902;8.596;2023-04-03T09:32:54;8.60;58.10
6738;DHT22;3406;49.902;8.596;2023-04-03T09:35:24;8.70;58.00
6738;DHT22;3406;49.902;8.596;2023-04-03T09:37:52;8.70;57.70
6738;DHT22;3406;49.902;8.596;2023-04-03T09:40:33;8.80;57.20
6738;DHT22;3406;49.902;8.596;2023-04-03T09:43:24;8.90;56.90
6738;DHT22;3406;49.902;8.596;2023-04-03T09:45:52;8.90;56.50
6738;DHT22;3406;49.902;8.596;2023-04-03T09:48:20;8.80;56.20
6738;DHT22;3406;49.902;8.596;2023-04-03T09:50:57;8.60;56.10
6738;DHT22;3406;49.902;8.596;2023-04-03T09:53:31;8.50;56.40
6738;DHT22;3406;49.902;8.596;2023-04-03T09:55:59;8.60;56.50
6738;DHT22;3406;49.902;8.596;2023-04-03T09:58:29;8.80;56.60
6738;DHT22;3406;49.902;8.596;2023-04-03T10:01:00;8.90;56.50
6738;DHT22;3406;49.902;8.596;2023-04-03T10:03:30;9.00;56.40
6738;DHT22;3406;49.902;8.596;2023-04-03T10:05:58;9.00;56.30
6738;DHT22;3406;49.902;8.596;2023-04-03T10:08:28;9.00;57.00
6738;DHT22;3406;49.902;8.596;2023-04-03T10:11:10;9.10;56.20
6738;DHT22;3406;49.902;8.596;2023-04-03T10:13:52;9.20;55.80
6738;DHT22;3406;49.902;8.596;2023-04-03T10:16:23;9.10;55.60
6738;DHT22;3406;49.902;8.596;2023-04-03T10:19:03;9.10;55.70
6738;DHT22;3406;49.902;8.596;2023-04-03T10:21:39;9.20;54.80
6738;DHT22;3406;49.902;8.596;2023-04-03T10:24:11;9.30;54.50
6738;DHT22;3406;49.902;8.596;2023-04-03T10:26:45;9.30;54.80
6738;DHT22;3406;49.902;8.596;2023-04-03T10:29:25;9.50;55.00
6738;DHT22;3406;49.902;8.596;2023-04-03T10:31:59;9.50;54.80
6738;DHT22;3406;49.902;8.596;2023-04-03T10:34:30;9.50;54.80
6738;DHT22;3406;49.902;8.596;2023-04-03T10:37:04;9.50;54.80
6738;DHT22;3406;49.902;8.596;2023-04-03T10:39:36;9.60;53.80
6738;DHT22;3406;49.902;8.596;2023-04-03T10:42:09;9.60;53.80
6738;DHT22;3406;49.902;8.596;2023-04-03T10:44:56;9.60;53.90
6738;DHT22;3406;49.902;8.596;2023-04-03T10:47:34;9.60;53.80
6738;DHT22;3406;49.902;8.596;2023-04-03T10:50:08;9.70;53.90
6738;DHT22;3406;49.902;8.596;2023-04-03T10:52:42;9.90;53.80
6738;DHT22;3406;49.902;8.596;2023-04-03T10:55:21;10.00;52.60
6738;DHT22;3406;49.902;8.596;2023-04-03T10:57:52;10.10;53.10
6738;DHT22;3406;49.902;8.596;2023-04-03T11:00:26;10.10;52.30
6738;DHT22;3406;49.902;8.596;2023-04-03T11:03:00;10.00;52.10
6738;DHT22;3406;49.902;8.596;2023-04-03T11:05:31;9.80;52.90
6738;DHT22;3406;49.902;8.596;2023-04-03T11:08:04;9.60;52.80
6738;DHT22;3406;49.902;8.596;2023-04-03T11:10:37;9.50;52.80
6738;DHT22;3406;49.902;8.596;2023-04-03T11:13:12;9.50;52.80
6738;DHT22;3406;49.902;8.596;2023-04-03T11:15:41;9.50;52.80
6738;DHT22;3406;49.902;8.596;2023-04-03T11:18:12;9.50;52.60
6738;DHT22;3406;49.902;8.596;2023-04-03T11:20:42;9.60;52.40
6738;DHT22;3406;49.902;8.596;2023-04-03T11:23:15;9.60;52.20
6738;DHT22;3406;49.902;8.596;2023-04-03T11:25:46;9.70;52.10
6738;DHT22;3406;49.902;8.596;2023-04-03T11:28:14;9.70;51.70
6738;DHT22;3406;49.902;8.596;2023-04-03T11:30:46;9.80;51.60
6738;DHT22;3406;49.902;8.596;2023-04-03T11:33:34;10.00;50.40
6738;DHT22;3406;49.902;8.596;2023-04-03T11:36:06;10.20;50.00
6738;DHT22;3406;49.902;8.596;2023-04-03T11:38:36;10.20;49.70
6738;DHT22;3406;49.902;8.596;2023-04-03T11:41:07;10.10;49.40
6738;DHT22;3406;49.902;8.596;2023-04-03T11:43:40;10.10;49.20
6738;DHT22;3406;49.902;8.596;2023-04-03T11:46:09;10.10;48.90
6738;DHT22;3406;49.902;8.596;2023-04-03T11:48:45;10.10;48.40
6738;DHT22;3406;49.902;8.596;2023-04-03T11:51:39;10.10;47.30
6738;DHT22;3406;49.902;8.596;2023-04-03T11:54:45;10.00;47.40
6738;DHT22;3406;49.902;8.596;2023-04-03T11:57:45;10.00;47.40
6738;DHT22;3406;49.902;8.596;2023-04-03T12:00:45;10.00;47.30
6738;DHT22;3406;49.902;8.596;2023-04-03T12:09:27;10.50;46.60
6738;DHT22;3406;49.902;8.596;2023-04-03T12:11:57;10.60;46.10
6738;DHT22;3406;49.902;8.596;2023-04-03T12:14:26;10.70;45.70
6738;DHT22;3406;49.902;8.596;2023-04-03T12:16:54;10.70;45.60
6738;DHT22;3406;49.902;8.596;2023-04-03T12:19:37;10.70;45.40
6738;DHT22;3406;49.902;8.596;2023-04-03T12:22:15;10.60;44.70
6738;DHT22;3406;49.902;8.596;2023-04-03T12:24:45;10.40;44.00
6738;DHT22;3406;49.902;8.596;2023-04-03T12:27:33;10.20;44.00
6738;DHT22;3406;49.902;8.596;2023-04-03T12:30:06;10.10;42.90
6738;DHT22;3406;49.902;8.596;2023-04-03T12:32:49;9.90;43.60
6738;DHT22;3406;49.902;8.596;2023-04-03T12:35:24;9.90;43.40
6738;DHT22;3406;49.902;8.596;2023-04-03T12:38:21;10.00;42.20
6738;DHT22;3406;49.902;8.596;2023-04-03T12:40:55;10.00;42.00
6738;DHT22;3406;49.902;8.596;2023-04-03T12:43:36;10.10;41.20
6738;DHT22;3406;49.902;8.596;2023-04-03T12:46:12;10.20;41.30
6738;DHT22;3406;49.902;8.596;2023-04-03T12:48:48;10.50;41.50
6738;DHT22;3406;49.902;8.596;2023-04-03T12:51:19;10.60;40.80
6738;DHT22;3406;49.902;8.596;2023-04-03T12:53:49;10.80;40.90
6738;DHT22;3406;49.902;8.596;2023-04-03T12:56:22;10.90;40.90
6738;DHT22;3406;49.902;8.596;2023-04-03T12:58:51;10.80;40.60
6738;DHT22;3406;49.902;8.596;2023-04-03T13:01:21;10.70;40.50
6738;DHT22;3406;49.902;8.596;2023-04-03T13:03:49;10.50;40.10
6738;DHT22;3406;49.902;8.596;2023-04-03T13:06:21;10.40;40.20
6738;DHT22;3406;49.902;8.596;2023-04-03T13:08:49;10.40;40.50
6738;DHT22;3406;49.902;8.596;2023-04-03T13:11:17;10.40;40.50
6738;DHT22;3406;49.902;8.596;2023-04-03T13:13:54;10.30;40.20
6738;DHT22;3406;49.902;8.596;2023-04-03T13:16:21;10.30;40.10
6738;DHT22;3406;49.902;8.596;2023-04-03T13:18:51;10.20;40.10
6738;DHT22;3406;49.902;8.596;2023-04-03T13:21:21;10.20;40.00
6738;DHT22;3406;49.902;8.596;2023-04-03T13:23:51;10.20;39.80
6738;DHT22;3406;49.902;8.596;2023-04-03T13:26:21;10.30;40.00
6738;DHT22;3406;49.902;8.596;2023-04-03T13:28:49;10.40;40.00
6738;DHT22;3406;49.902;8.596;2023-04-03T13:31:19;10.50;39.60
6738;DHT22;3406;49.902;8.596;2023-04-03T13:33:55;10.60;39.60
6738;DHT22;3406;49.902;8.596;2023-04-03T13:36:27;10.70;39.30
6738;DHT22;3406;49.902;8.596;2023-04-03T13:39:01;10.70;38.80
6738;DHT22;3406;49.902;8.596;2023-04-03T13:41:31;10.70;39.30
6738;DHT22;3406;49.902;8.596;2023-04-03T13:44:26;10.70;39.90
6738;DHT22;3406;49.902;8.596;2023-04-03T13:46:55;10.70;40.10
6738;DHT22;3406;49.902;8.596;2023-04-03T13:49:32;10.70;40.30
6738;DHT22;3406;49.902;8.596;2023-04-03T13:52:00;10.70;40.40
6738;DHT22;3406;49.902;8.596;2023-04-03T13:54:32;10.60;40.40
6738;DHT22;3406;49.902;8.596;2023-04-03T13:57:00;10.60;40.80
6738;DHT22;3406;49.902;8.596;2023-04-03T13:59:29;10.70;40.90
6738;DHT22;3406;49.902;8.596;2023-04-03T14:02:14;10.70;40.80
6738;DHT22;3406;49.902;8.596;2023-04-03T14:04:53;10.80;40.90
6738;DHT22;3406;49.902;8.596;2023-04-03T14:07:23;10.80;41.00
6738;DHT22;3406;49.902;8.596;2023-04-03T14:09:51;10.80;41.00
6738;DHT22;3406;49.902;8.596;2023-04-03T14:12:24;10.80;41.20
6738;DHT22;3406;49.902;8.596;2023-04-03T14:14:51;10.70;40.90
6738;DHT22;3406;49.902;8.596;2023-04-03T14:17:21;10.60;40.90
6738;DHT22;3406;49.902;8.596;2023-04-03T14:19:50;10.50;40.90
6738;DHT22;3406;49.902;8.596;2023-04-03T14:22:18;10.50;41.10
6738;DHT22;3406;49.902;8.596;2023-04-03T14:24:48;10.60;41.10
6738;DHT22;3406;49.902;8.596;2023-04-03T14:27:19;10.70;41.20
6738;DHT22;3406;49.902;8.596;2023-04-03T14:29:47;10.70;40.90
6738;DHT22;3406;49.902;8.596;2023-04-03T14:32:15;10.70;40.60
6738;DHT22;3406;49.902;8.596;2023-04-03T14:34:43;10.70;40.50
6738;DHT22;3406;49.902;8.596;2023-04-03T14:37:11;10.70;40.70
6738;DHT22;3406;49.902;8.596;2023-04-03T14:39:38;10.70;40.90
6738;DHT22;3406;49.902;8.596;2023-04-03T14:42:11;10.70;40.80
6738;DHT22;3406;49.902;8.596;2023-04-03T14:44:38;10.70;40.90
6738;DHT22;3406;49.902;8.596;2023-04-03T14:47:09;10.60;40.70
6738;DHT22;3406;49.902;8.596;2023-04-03T14:49:36;10.60;40.80
6738;DHT22;3406;49.902;8.596;2023-04-03T14:52:03;10.50;40.80
6738;DHT22;3406;49.902;8.596;2023-04-03T14:54:30;10.60;41.10
6738;DHT22;3406;49.902;8.596;2023-04-03T14:56:59;10.60;40.70
6738;DHT22;3406;49.902;8.596;2023-04-03T14:59:29;10.50;40.40
6738;DHT22;3406;49.902;8.596;2023-04-03T15:01:57;10.50;40.40
6738;DHT22;3406;49.902;8.596;2023-04-03T15:04:26;10.30;40.50
6738;DHT22;3406;49.902;8.596;2023-04-03T15:06:53;10.20;40.60
6738;DHT22;3406;49.902;8.596;2023-04-03T15:09:22;10.30;40.80
6738;DHT22;3406;49.902;8.596;2023-04-03T15:11:49;10.30;40.80
6738;DHT22;3406;49.902;8.596;2023-04-03T15:14:16;10.40;41.40
6738;DHT22;3406;49.902;8.596;2023-04-03T15:16:44;10.40;40.80
6738;DHT22;3406;49.902;8.596;2023-04-03T15:19:12;10.50;40.90
6738;DHT22;3406;49.902;8.596;2023-04-03T15:21:38;10.50;40.80
6738;DHT22;3406;49.902;8.596;2023-04-03T15:24:05;10.40;40.70
6738;DHT22;3406;49.902;8.596;2023-04-03T15:26:33;10.40;40.90
6738;DHT22;3406;49.902;8.596;2023-04-03T15:28:59;10.40;40.60
6738;DHT22;3406;49.902;8.596;2023-04-03T15:31:27;10.40;40.80
6738;DHT22;3406;49.902;8.596;2023-04-03T15:33:55;10.40;40.80
6738;DHT22;3406;49.902;8.596;2023-04-03T15:36:22;10.40;40.70
6738;DHT22;3406;49.902;8.596;2023-04-03T15:38:48;10.40;40.70
6738;DHT22;3406;49.902;8.596;2023-04-03T15:41:15;10.40;40.70
6738;DHT22;3406;49.902;8.596;2023-04-03T15:43:42;10.40;40.90
6738;DHT22;3406;49.902;8.596;2023-04-03T15:46:09;10.40;41.10
6738;DHT22;3406;49.902;8.596;2023-04-03T15:48:36;10.40;41.10
6738;DHT22;3406;49.902;8.596;2023-04-03T15:51:05;10.40;41.10
6738;DHT22;3406;49.902;8.596;2023-04-03T15:53:32;10.40;41.00
6738;DHT22;3406;49.902;8.596;2023-04-03T15:55:59;10.40;40.90
6738;DHT22;3406;49.902;8.596;2023-04-03T15:58:25;10.40;40.50
6738;DHT22;3406;49.902;8.596;2023-04-03T16:00:52;10.40;40.40
6738;DHT22;3406;49.902;8.596;2023-04-03T16:03:21;10.40;40.10
6738;DHT22;3406;49.902;8.596;2023-04-03T16:05:50;10.20;40.00
6738;DHT22;3406;49.902;8.596;2023-04-03T16:08:18;10.20;40.40
6738;DHT22;3406;49.902;8.596;2023-04-03T16:10:45;10.20;40.60
6738;DHT22;3406;49.902;8.596;2023-04-03T16:13:12;10.20;40.80
6738;DHT22;3406;49.902;8.596;2023-04-03T16:15:39;10.20;41.10
6738;DHT22;3406;49.902;8.596;2023-04-03T16:18:07;10.20;41.10
6738;DHT22;3406;49.902;8.596;2023-04-03T16:20:34;10.30;41.20
6738;DHT22;3406;49.902;8.596;2023-04-03T16:23:01;10.30;41.20
6738;DHT22;3406;49.902;8.596;2023-04-03T16:25:29;10.20;41.10
6738;DHT22;3406;49.902;8.596;2023-04-03T16:27:56;10.20;41.10
6738;DHT22;3406;49.902;8.596;2023-04-03T16:30:23;10.30;41.20
6738;DHT22;3406;49.902;8.596;2023-04-03T16:32:50;10.30;41.30
6738;DHT22;3406;49.902;8.596;2023-04-03T16:35:16;10.30;41.20